sensor_id;sensor_type;location;lat;lon;timestamp;temperature;humidity
8792;DHT22;4432;50.890;4.744;2022-09-20T00:01:21;12.10;99.90
8792;DHT22;4432;50.890;4.744;2022-09-20T00:03:49;12.00;99.90
8792;DHT22;4432;50.890;4.744;2022-09-20T00:06:18;12.00;99.90
8792;DHT22;4432;50.890;4.744;2022-09-20T00:08:44;11.90;99.90
8792;DHT22;4432;50.890;4.744;2022-09-20T00:11:13;11.80;99.90
8792;DHT22;4432;50.890;4.744;2022-09-20T00:13:41;11.80;99.90
8792;DHT22;4432;50.890;4.744;2022-09-20T00:16:19;11.80;99.90
8792;DHT22;4432;50.890;4.744;2022-09-20T00:18:53;11.70;99.90
8792;DHT22;4432;50.890;4.744;2022-09-20T00:21:22;11.60;99.90
8792;DHT22;4432;50.890;4.744;2022-09-20T00:23:48;11.50;99.90
8792;DHT22;4432;50.890;4.744;2022-09-20T00:26:14;11.40;99.90
8792;DHT22;4432;50.890;4.744;2022-09-20T00:28:40;11.30;99.90
8792;DHT22;4432;50.890;4.744;2022-09-20T00:31:06;11.20;99.90
8792;DHT22;4432;50.890;4.744;2022-09-20T00:33:32;11.10;99.90
8792;DHT22;4432;50.890;4.744;2022-09-20T00:36:17;11.00;99.90
8792;DHT22;4432;50.890;4.744;2022-09-20T00:38:42;10.90;99.90
8792;DHT22;4432;50.890;4.744;2022-09-20T00:41:09;10.80;99.90
8792;DHT22;4432;50.890;4.744;2022-09-20T00:43:43;10.70;99.90
8792;DHT22;4432;50.890;4.744;2022-09-20T00:46:42;10.70;99.90
8792;DHT22;4432;50.890;4.744;2022-09-20T00:49:17;10.60;99.90
8792;DHT22;4432;50.890;4.744;2022-09-20T00:51:48;10.60;99.90
8792;DHT22;4432;50.890;4.744;2022-09-20T00:54:17;10.60;99.90
8792;DHT22;4432;50.890;4.744;2022-09-20T00:56:44;10.60;99.90
8792;DHT22;4432;50.890;4.744;2022-09-20T00:59:26;10.60;99.90
8792;DHT22;4432;50.890;4.744;2022-09-20T01:02:07;10.50;99.90
8792;DHT22;4432;50.890;4.744;2022-09-20T01:04:35;10.50;99.90
8792;DHT22;4432;50.890;4.744;2022-09-20T01:07:05;10.50;99.90
8792;DHT22;4432;50.890;4.744;2022-09-20T01:09:32;10.50;99.90
8792;DHT22;4432;50.890;4.744;2022-09-20T01:12:01;10.60;99.90
8792;DHT22;4432;50.890;4.744;2022-09-20T01:14:28;10.60;99.90
8792;DHT22;4432;50.890;4.744;2022-09-20T01:16:56;10.50;99.90
8792;DHT22;4432;50.890;4.744;2022-09-20T01:22:45;10.50;99.90
8792;DHT22;4432;50.890;4.744;2022-09-20T01:28:03;10.40;99.90
8792;DHT22;4432;50.890;4.744;2022-09-20T01:30:40;10.40;99.90
8792;DHT22;4432;50.890;4.744;2022-09-20T01:33:09;10.40;99.90
8792;DHT22;4432;50.890;4.744;2022-09-20T01:35:38;10.40;99.90
8792;DHT22;4432;50.890;4.744;2022-09-20T01:43:49;10.50;99.90
8792;DHT22;4432;50.890;4.744;2022-09-20T01:46:35;10.50;99.90
8792;DHT22;4432;50.890;4.744;2022-09-20T02:00:50;10.70;99.90
8792;DHT22;4432;50.890;4.744;2022-09-20T02:11:52;10.70;99.90
8792;DHT22;4432;50.890;4.744;2022-09-20T02:28:51;10.80;99.90
8792;DHT22;4432;50.890;4.744;2022-09-20T02:31:30;10.90;99.90
8792;DHT22;4432;50.890;4.744;2022-09-20T02:37:20;10.90;99.90
8792;DHT22;4432;50.890;4.744;2022-09-20T02:43:03;10.90;99.90
8792;DHT22;4432;50.890;4.744;2022-09-20T02:48:02;10.90;99.90
8792;DHT22;4432;50.890;4.744;2022-09-20T02:50:46;11.00;99.90
8792;DHT22;4432;50.890;4.744;2022-09-20T02:53:38;11.00;99.90
8792;DHT22;4432;50.890;4.744;2022-09-20T02:56:13;11.00;99.90
8792;DHT22;4432;50.890;4.744;2022-09-20T03:01:37;11.00;99.90
8792;DHT22;4432;50.890;4.744;2022-09-20T03:05:08;11.00;99.90
8792;DHT22;4432;50.890;4.744;2022-09-20T03:07:17;11.00;99.90
8792;DHT22;4432;50.890;4.744;2022-09-20T03:10:06;11.00;99.90
8792;DHT22;4432;50.890;4.744;2022-09-20T03:19:34;11.10;99.90
8792;DHT22;4432;50.890;4.744;2022-09-20T03:21:51;11.10;99.90
8792;DHT22;4432;50.890;4.744;2022-09-20T03:24:46;11.10;99.90
8792;DHT22;4432;50.890;4.744;2022-09-20T03:27:45;11.10;99.90
8792;DHT22;4432;50.890;4.744;2022-09-20T03:30:30;11.10;99.90
8792;DHT22;4432;50.890;4.744;2022-09-20T03:44:55;11.10;99.90
8792;DHT22;4432;50.890;4.744;2022-09-20T03:47:07;11.10;99.90
8792;DHT22;4432;50.890;4.744;2022-09-20T03:55:40;11.20;99.90
8792;DHT22;4432;50.890;4.744;2022-09-20T04:01:15;11.30;99.90
8792;DHT22;4432;50.890;4.744;2022-09-20T04:03:59;11.30;99.90
8792;DHT22;4432;50.890;4.744;2022-09-20T04:07:15;11.40;99.90
8792;DHT22;4432;50.890;4.744;2022-09-20T04:12:58;11.40;99.90
8792;DHT22;4432;50.890;4.744;2022-09-20T04:15:52;11.40;99.90
8792;DHT22;4432;50.890;4.744;2022-09-20T04:20:53;11.40;99.90
8792;DHT22;4432;50.890;4.744;2022-09-20T04:26:13;11.40;99.90
8792;DHT22;4432;50.890;4.744;2022-09-20T04:28:47;11.40;99.90
8792;DHT22;4432;50.890;4.744;2022-09-20T04:31:45;11.40;99.90
8792;DHT22;4432;50.890;4.744;2022-09-20T04:34:18;11.40;99.90
8792;DHT22;4432;50.890;4.744;2022-09-20T04:36:58;11.40;99.90
8792;DHT22;4432;50.890;4.744;2022-09-20T04:39:47;11.40;99.90
8792;DHT22;4432;50.890;4.744;2022-09-20T04:53:28;11.60;99.90
8792;DHT22;4432;50.890;4.744;2022-09-20T04:56:26;11.50;99.90
8792;DHT22;4432;50.890;4.744;2022-09-20T04:59:06;11.50;99.90
8792;DHT22;4432;50.890;4.744;2022-09-20T05:04:36;11.50;99.90
8792;DHT22;4432;50.890;4.744;2022-09-20T05:07:50;11.40;99.90
8792;DHT22;4432;50.890;4.744;2022-09-20T05:10:50;11.40;99.90
8792;DHT22;4432;50.890;4.744;2022-09-20T05:16:35;11.30;99.90
8792;DHT22;4432;50.890;4.744;2022-09-20T05:19:33;11.30;99.90
8792;DHT22;4432;50.890;4.744;2022-09-20T05:30:45;11.00;99.90
8792;DHT22;4432;50.890;4.744;2022-09-20T05:33:25;10.90;99.90
8792;DHT22;4432;50.890;4.744;2022-09-20T05:38:54;10.80;99.90
8792;DHT22;4432;50.890;4.744;2022-09-20T05:50:08;10.70;99.90
8792;DHT22;4432;50.890;4.744;2022-09-20T05:55:49;10.70;99.90
8792;DHT22;4432;50.890;4.744;2022-09-20T06:04:20;10.70;99.90
8792;DHT22;4432;50.890;4.744;2022-09-20T06:15:02;10.70;99.90
8792;DHT22;4432;50.890;4.744;2022-09-20T06:17:38;10.80;99.90
8792;DHT22;4432;50.890;4.744;2022-09-20T06:20:27;10.80;99.90
8792;DHT22;4432;50.890;4.744;2022-09-20T06:22:55;10.90;99.90
8792;DHT22;4432;50.890;4.744;2022-09-20T06:25:38;10.90;99.90
8792;DHT22;4432;50.890;4.744;2022-09-20T06:28:15;11.00;99.90
8792;DHT22;4432;50.890;4.744;2022-09-20T06:30:50;11.10;99.90
8792;DHT22;4432;50.890;4.744;2022-09-20T06:33:21;11.60;99.90
8792;DHT22;4432;50.890;4.744;2022-09-20T06:38:35;12.60;99.90
8792;DHT22;4432;50.890;4.744;2022-09-20T06:41:21;12.40;99.90
8792;DHT22;4432;50.890;4.744;2022-09-20T06:44:02;13.00;99.90
8792;DHT22;4432;50.890;4.744;2022-09-20T06:46:34;13.60;99.90
8792;DHT22;4432;50.890;4.744;2022-09-20T06:49:01;14.20;99.90
8792;DHT22;4432;50.890;4.744;2022-09-20T06:51:32;15.00;99.90
8792;DHT22;4432;50.890;4.744;2022-09-20T06:53:58;15.10;99.90
8792;DHT22;4432;50.890;4.744;2022-09-20T06:56:27;15.50;99.90
8792;DHT22;4432;50.890;4.744;2022-09-20T06:58:54;16.20;99.90
8792;DHT22;4432;50.890;4.744;2022-09-20T07:01:20;16.30;99.90
8792;DHT22;4432;50.890;4.744;2022-09-20T07:03:46;16.70;99.90
8792;DHT22;4432;50.890;4.744;2022-09-20T07:06:13;17.00;99.90
8792;DHT22;4432;50.890;4.744;2022-09-20T07:08:47;16.80;99.90
8792;DHT22;4432;50.890;4.744;2022-09-20T07:11:15;16.30;99.90
8792;DHT22;4432;50.890;4.744;2022-09-20T07:13:48;15.80;99.90
8792;DHT22;4432;50.890;4.744;2022-09-20T07:16:14;15.30;99.90
8792;DHT22;4432;50.890;4.744;2022-09-20T07:18:40;15.00;99.90
8792;DHT22;4432;50.890;4.744;2022-09-20T07:21:17;14.70;99.90
8792;DHT22;4432;50.890;4.744;2022-09-20T07:23:43;14.50;99.90
8792;DHT22;4432;50.890;4.744;2022-09-20T07:26:22;14.20;99.90
8792;DHT22;4432;50.890;4.744;2022-09-20T07:28:49;14.00;99.90
8792;DHT22;4432;50.890;4.744;2022-09-20T07:31:16;14.00;99.90
8792;DHT22;4432;50.890;4.744;2022-09-20T07:33:44;13.80;99.90
8792;DHT22;4432;50.890;4.744;2022-09-20T07:36:10;13.70;99.90
8792;DHT22;4432;50.890;4.744;2022-09-20T07:38:37;13.50;99.90
8792;DHT22;4432;50.890;4.744;2022-09-20T07:41:03;13.50;99.90
8792;DHT22;4432;50.890;4.744;2022-09-20T07:43:30;13.60;99.90
8792;DHT22;4432;50.890;4.744;2022-09-20T07:45:56;13.50;99.90
8792;DHT22;4432;50.890;4.744;2022-09-20T07:48:34;13.50;99.90
8792;DHT22;4432;50.890;4.744;2022-09-20T07:51:05;13.60;99.90
8792;DHT22;4432;50.890;4.744;2022-09-20T07:53:31;13.60;99.90
8792;DHT22;4432;50.890;4.744;2022-09-20T07:58:23;13.60;99.90
8792;DHT22;4432;50.890;4.744;2022-09-20T08:00:59;13.60;99.90
8792;DHT22;4432;50.890;4.744;2022-09-20T08:03:27;13.70;99.90
8792;DHT22;4432;50.890;4.744;2022-09-20T08:06:09;13.80;99.90
8792;DHT22;4432;50.890;4.744;2022-09-20T08:08:37;13.80;99.90
8792;DHT22;4432;50.890;4.744;2022-09-20T08:11:05;13.90;99.90
8792;DHT22;4432;50.890;4.744;2022-09-20T08:13:38;14.00;99.90
8792;DHT22;4432;50.890;4.744;2022-09-20T08:16:07;14.20;99.90
8792;DHT22;4432;50.890;4.744;2022-09-20T08:18:34;14.10;99.90
8792;DHT22;4432;50.890;4.744;2022-09-20T08:21:07;14.20;99.90
8792;DHT22;4432;50.890;4.744;2022-09-20T08:23:39;14.10;99.90
8792;DHT22;4432;50.890;4.744;2022-09-20T08:26:06;14.20;99.90
8792;DHT22;4432;50.890;4.744;2022-09-20T08:28:32;14.50;99.90
8792;DHT22;4432;50.890;4.744;2022-09-20T08:31:06;14.60;99.90
8792;DHT22;4432;50.890;4.744;2022-09-20T08:33:33;14.50;99.90
8792;DHT22;4432;50.890;4.744;2022-09-20T08:36:03;14.40;99.90
8792;DHT22;4432;50.890;4.744;2022-09-20T08:38:30;14.30;99.90
8792;DHT22;4432;50.890;4.744;2022-09-20T08:41:02;14.20;99.90
8792;DHT22;4432;50.890;4.744;2022-09-20T08:43:39;14.10;99.90
8792;DHT22;4432;50.890;4.744;2022-09-20T08:46:12;14.20;99.90
8792;DHT22;4432;50.890;4.744;2022-09-20T08:48:38;14.20;99.90
8792;DHT22;4432;50.890;4.744;2022-09-20T08:51:04;14.20;99.90
8792;DHT22;4432;50.890;4.744;2022-09-20T08:53:32;14.30;99.90
8792;DHT22;4432;50.890;4.744;2022-09-20T08:55:58;14.40;99.90
8792;DHT22;4432;50.890;4.744;2022-09-20T08:58:25;14.50;99.90
8792;DHT22;4432;50.890;4.744;2022-09-20T09:00:53;14.60;99.90
8792;DHT22;4432;50.890;4.744;2022-09-20T09:03:21;14.70;99.90
8792;DHT22;4432;50.890;4.744;2022-09-20T09:05:52;14.70;99.90
8792;DHT22;4432;50.890;4.744;2022-09-20T09:08:22;14.90;99.90
8792;DHT22;4432;50.890;4.744;2022-09-20T09:11:02;15.10;99.90
8792;DHT22;4432;50.890;4.744;2022-09-20T09:13:52;15.20;99.90
8792;DHT22;4432;50.890;4.744;2022-09-20T09:16:22;15.30;99.90
8792;DHT22;4432;50.890;4.744;2022-09-20T09:18:48;15.30;99.90
8792;DHT22;4432;50.890;4.744;2022-09-20T09:21:26;15.20;99.90
8792;DHT22;4432;50.890;4.744;2022-09-20T09:24:01;15.20;99.90
8792;DHT22;4432;50.890;4.744;2022-09-20T09:26:37;15.40;99.90
8792;DHT22;4432;50.890;4.744;2022-09-20T09:29:19;15.50;99.90
8792;DHT22;4432;50.890;4.744;2022-09-20T09:31:47;15.50;99.90
8792;DHT22;4432;50.890;4.744;2022-09-20T09:34:31;15.40;99.90
8792;DHT22;4432;50.890;4.744;2022-09-20T09:36:58;15.80;99.90
8792;DHT22;4432;50.890;4.744;2022-09-20T09:39:30;16.20;99.90
8792;DHT22;4432;50.890;4.744;2022-09-20T09:41:56;16.40;99.90
8792;DHT22;4432;50.890;4.744;2022-09-20T09:44:30;16.40;99.90
8792;DHT22;4432;50.890;4.744;2022-09-20T09:47:00;16.70;99.90
8792;DHT22;4432;50.890;4.744;2022-09-20T09:49:28;16.80;99.90
8792;DHT22;4432;50.890;4.744;2022-09-20T09:52:17;16.90;99.90
8792;DHT22;4432;50.890;4.744;2022-09-20T09:54:52;17.00;99.90
8792;DHT22;4432;50.890;4.744;2022-09-20T09:57:47;16.80;99.90
8792;DHT22;4432;50.890;4.744;2022-09-20T10:00:23;16.90;99.90
8792;DHT22;4432;50.890;4.744;2022-09-20T10:12:01;17.80;99.90
8792;DHT22;4432;50.890;4.744;2022-09-20T10:20:34;17.70;99.90
8792;DHT22;4432;50.890;4.744;2022-09-20T10:31:42;17.70;99.90
8792;DHT22;4432;50.890;4.744;2022-09-20T10:34:48;17.70;99.90
8792;DHT22;4432;50.890;4.744;2022-09-20T10:42:48;17.80;99.90
8792;DHT22;4432;50.890;4.744;2022-09-20T10:48:29;17.40;99.90
8792;DHT22;4432;50.890;4.744;2022-09-20T10:51:13;17.20;99.90
8792;DHT22;4432;50.890;4.744;2022-09-20T10:53:54;17.30;99.90
8792;DHT22;4432;50.890;4.744;2022-09-20T10:56:42;17.30;99.90
8792;DHT22;4432;50.890;4.744;2022-09-20T10:59:19;17.40;99.90
8792;DHT22;4432;50.890;4.744;2022-09-20T11:02:04;17.50;99.90
8792;DHT22;4432;50.890;4.744;2022-09-20T11:05:07;17.60;99.90
8792;DHT22;4432;50.890;4.744;2022-09-20T11:07:53;17.60;99.90
8792;DHT22;4432;50.890;4.744;2022-09-20T11:10:26;17.70;99.90
8792;DHT22;4432;50.890;4.744;2022-09-20T11:13:00;17.80;99.90
8792;DHT22;4432;50.890;4.744;2022-09-20T11:15:33;17.80;99.90
8792;DHT22;4432;50.890;4.744;2022-09-20T11:18:10;17.80;99.90
8792;DHT22;4432;50.890;4.744;2022-09-20T11:20:47;17.80;99.90
8792;DHT22;4432;50.890;4.744;2022-09-20T11:23:22;17.80;99.90
8792;DHT22;4432;50.890;4.744;2022-09-20T11:25:54;17.60;99.90
8792;DHT22;4432;50.890;4.744;2022-09-20T11:28:42;17.70;99.90
8792;DHT22;4432;50.890;4.744;2022-09-20T11:31:41;18.00;99.90
8792;DHT22;4432;50.890;4.744;2022-09-20T11:34:22;18.50;99.90
8792;DHT22;4432;50.890;4.744;2022-09-20T11:36:59;18.60;99.90
8792;DHT22;4432;50.890;4.744;2022-09-20T11:39:43;18.70;99.90
8792;DHT22;4432;50.890;4.744;2022-09-20T11:42:20;18.90;99.90
8792;DHT22;4432;50.890;4.744;2022-09-20T11:44:47;18.90;99.90
8792;DHT22;4432;50.890;4.744;2022-09-20T11:50:27;18.90;99.90
8792;DHT22;4432;50.890;4.744;2022-09-20T11:58:52;19.30;99.90
8792;DHT22;4432;50.890;4.744;2022-09-20T12:01:37;19.40;99.90
8792;DHT22;4432;50.890;4.744;2022-09-20T12:06:39;18.90;99.90
8792;DHT22;4432;50.890;4.744;2022-09-20T12:09:26;18.90;99.90
8792;DHT22;4432;50.890;4.744;2022-09-20T12:11:52;18.90;99.90
8792;DHT22;4432;50.890;4.744;2022-09-20T12:14:23;18.60;99.90
8792;DHT22;4432;50.890;4.744;2022-09-20T12:16:50;18.70;99.90
8792;DHT22;4432;50.890;4.744;2022-09-20T12:24:31;19.20;99.90
8792;DHT22;4432;50.890;4.744;2022-09-20T12:27:03;19.20;99.90
8792;DHT22;4432;50.890;4.744;2022-09-20T12:32:02;19.00;99.90
8792;DHT22;4432;50.890;4.744;2022-09-20T12:34:47;18.60;99.90
8792;DHT22;4432;50.890;4.744;2022-09-20T12:39:39;18.40;99.90
8792;DHT22;4432;50.890;4.744;2022-09-20T12:47:53;17.60;99.90
8792;DHT22;4432;50.890;4.744;2022-09-20T12:50:13;17.60;99.90
8792;DHT22;4432;50.890;4.744;2022-09-20T12:53:00;17.90;99.90
8792;DHT22;4432;50.890;4.744;2022-09-20T12:55:51;18.00;99.90
8792;DHT22;4432;50.890;4.744;2022-09-20T12:58:25;18.00;99.90
8792;DHT22;4432;50.890;4.744;2022-09-20T13:03:32;18.60;99.90
8792;DHT22;4432;50.890;4.744;2022-09-20T13:14:17;19.10;99.90
8792;DHT22;4432;50.890;4.744;2022-09-20T13:24:40;19.60;99.90
8792;DHT22;4432;50.890;4.744;2022-09-20T13:27:16;19.60;99.90
8792;DHT22;4432;50.890;4.744;2022-09-20T13:29:44;20.10;99.90
8792;DHT22;4432;50.890;4.744;2022-09-20T13:32:28;20.30;99.90
8792;DHT22;4432;50.890;4.744;2022-09-20T13:40:33;19.10;99.90
8792;DHT22;4432;50.890;4.744;2022-09-20T13:43:01;19.10;99.90
8792;DHT22;4432;50.890;4.744;2022-09-20T13:45:28;19.10;99.90
8792;DHT22;4432;50.890;4.744;2022-09-20T13:47:58;19.10;99.90
8792;DHT22;4432;50.890;4.744;2022-09-20T13:50:31;19.20;99.90
8792;DHT22;4432;50.890;4.744;2022-09-20T13:52:59;19.60;99.90
8792;DHT22;4432;50.890;4.744;2022-09-20T13:55:31;19.70;99.90
8792;DHT22;4432;50.890;4.744;2022-09-20T13:58:05;19.80;99.90
8792;DHT22;4432;50.890;4.744;2022-09-20T14:00:32;19.80;99.90
8792;DHT22;4432;50.890;4.744;2022-09-20T14:02:59;19.70;99.90
8792;DHT22;4432;50.890;4.744;2022-09-20T14:05:27;19.70;99.90
8792;DHT22;4432;50.890;4.744;2022-09-20T14:07:55;19.40;99.90
8792;DHT22;4432;50.890;4.744;2022-09-20T14:10:32;19.30;99.90
8792;DHT22;4432;50.890;4.744;2022-09-20T14:13:00;19.00;99.90
8792;DHT22;4432;50.890;4.744;2022-09-20T14:15:35;18.80;99.90
8792;DHT22;4432;50.890;4.744;2022-09-20T14:18:02;18.70;99.90
8792;DHT22;4432;50.890;4.744;2022-09-20T14:20:29;18.90;99.90
8792;DHT22;4432;50.890;4.744;2022-09-20T14:22:56;19.00;99.90
8792;DHT22;4432;50.890;4.744;2022-09-20T14:25:23;19.10;99.90
8792;DHT22;4432;50.890;4.744;2022-09-20T14:28:25;19.30;99.90
8792;DHT22;4432;50.890;4.744;2022-09-20T14:30:51;19.40;99.90
8792;DHT22;4432;50.890;4.744;2022-09-20T14:33:19;19.40;99.90
8792;DHT22;4432;50.890;4.744;2022-09-20T14:35:54;19.20;99.90
8792;DHT22;4432;50.890;4.744;2022-09-20T14:38:24;19.20;99.90
8792;DHT22;4432;50.890;4.744;2022-09-20T14:40:51;19.20;99.90
8792;DHT22;4432;50.890;4.744;2022-09-20T14:45:59;18.90;99.90
8792;DHT22;4432;50.890;4.744;2022-09-20T14:48:39;18.60;99.90
8792;DHT22;4432;50.890;4.744;2022-09-20T14:53:45;18.00;99.90
8792;DHT22;4432;50.890;4.744;2022-09-20T14:56:14;17.80;99.90
8792;DHT22;4432;50.890;4.744;2022-09-20T14:59:06;17.50;99.90
8792;DHT22;4432;50.890;4.744;2022-09-20T15:01:33;17.40;99.90
8792;DHT22;4432;50.890;4.744;2022-09-20T15:04:06;17.40;99.90
8792;DHT22;4432;50.890;4.744;2022-09-20T15:06:35;17.30;99.90
8792;DHT22;4432;50.890;4.744;2022-09-20T15:09:01;17.20;99.90
8792;DHT22;4432;50.890;4.744;2022-09-20T15:11:27;17.20;99.90
8792;DHT22;4432;50.890;4.744;2022-09-20T15:13:54;17.20;99.90
8792;DHT22;4432;50.890;4.744;2022-09-20T15:16:20;17.10;99.90
8792;DHT22;4432;50.890;4.744;2022-09-20T15:18:46;17.10;99.90
8792;DHT22;4432;50.890;4.744;2022-09-20T15:21:11;17.20;99.90
8792;DHT22;4432;50.890;4.744;2022-09-20T15:23:38;17.10;99.90
8792;DHT22;4432;50.890;4.744;2022-09-20T15:26:05;17.10;99.90
8792;DHT22;4432;50.890;4.744;2022-09-20T15:28:33;17.10;99.90
8792;DHT22;4432;50.890;4.744;2022-09-20T15:30:59;17.10;99.90
8792;DHT22;4432;50.890;4.744;2022-09-20T15:33:28;17.10;99.90
8792;DHT22;4432;50.890;4.744;2022-09-20T15:35:54;17.10;99.90
8792;DHT22;4432;50.890;4.744;2022-09-20T15:38:20;17.00;99.90
8792;DHT22;4432;50.890;4.744;2022-09-20T15:40:48;17.10;99.90
8792;DHT22;4432;50.890;4.744;2022-09-20T15:43:16;17.10;99.90
8792;DHT22;4432;50.890;4.744;2022-09-20T15:46:00;17.10;99.90
8792;DHT22;4432;50.890;4.744;2022-09-20T15:48:37;17.20;99.90
8792;DHT22;4432;50.890;4.744;2022-09-20T15:51:06;17.20;99.90
8792;DHT22;4432;50.890;4.744;2022-09-20T15:53:44;17.30;99.90
8792;DHT22;4432;50.890;4.744;2022-09-20T15:56:19;17.20;99.90
8792;DHT22;4432;50.890;4.744;2022-09-20T15:58:50;17.10;99.90
8792;DHT22;4432;50.890;4.744;2022-09-20T16:01:17;16.90;99.90
8792;DHT22;4432;50.890;4.744;2022-09-20T16:03:44;16.60;99.90
8792;DHT22;4432;50.890;4.744;2022-09-20T16:06:11;16.50;99.90
8792;DHT22;4432;50.890;4.744;2022-09-20T16:08:42;16.50;99.90
8792;DHT22;4432;50.890;4.744;2022-09-20T16:11:11;16.40;99.90
8792;DHT22;4432;50.890;4.744;2022-09-20T16:13:37;16.20;99.90
8792;DHT22;4432;50.890;4.744;2022-09-20T16:16:05;16.00;99.90
8792;DHT22;4432;50.890;4.744;2022-09-20T16:18:31;15.90;99.90
8792;DHT22;4432;50.890;4.744;2022-09-20T16:21:17;15.80;99.90
8792;DHT22;4432;50.890;4.744;2022-09-20T16:23:53;15.70;99.90
8792;DHT22;4432;50.890;4.744;2022-09-20T16:26:20;15.60;99.90
8792;DHT22;4432;50.890;4.744;2022-09-20T16:28:46;15.50;99.90
8792;DHT22;4432;50.890;4.744;2022-09-20T16:31:44;15.50;99.90
8792;DHT22;4432;50.890;4.744;2022-09-20T16:34:28;15.40;99.90
8792;DHT22;4432;50.890;4.744;2022-09-20T16:37:09;15.40;99.90
8792;DHT22;4432;50.890;4.744;2022-09-20T16:39:41;15.30;99.90
8792;DHT22;4432;50.890;4.744;2022-09-20T16:42:10;15.20;99.90
8792;DHT22;4432;50.890;4.744;2022-09-20T16:44:38;15.20;99.90
8792;DHT22;4432;50.890;4.744;2022-09-20T16:47:06;15.10;99.90
8792;DHT22;4432;50.890;4.744;2022-09-20T16:49:34;15.00;99.90
8792;DHT22;4432;50.890;4.744;2022-09-20T16:52:02;14.90;99.90
8792;DHT22;4432;50.890;4.744;2022-09-20T16:54:28;14.80;99.90
8792;DHT22;4432;50.890;4.744;2022-09-20T16:56:54;14.80;99.90
8792;DHT22;4432;50.890;4.744;2022-09-20T16:59:20;14.80;99.90
8792;DHT22;4432;50.890;4.744;2022-09-20T17:01:47;14.70;99.90
8792;DHT22;4432;50.890;4.744;2022-09-20T17:04:14;14.70;99.90
8792;DHT22;4432;50.890;4.744;2022-09-20T17:06:42;14.70;99.90
8792;DHT22;4432;50.890;4.744;2022-09-20T17:09:08;14.60;99.90
8792;DHT22;4432;50.890;4.744;2022-09-20T17:11:45;14.60;99.90
8792;DHT22;4432;50.890;4.744;2022-09-20T17:14:12;14.60;99.90
8792;DHT22;4432;50.890;4.744;2022-09-20T17:16:40;14.50;99.90
8792;DHT22;4432;50.890;4.744;2022-09-20T17:19:10;14.50;99.90
8792;DHT22;4432;50.890;4.744;2022-09-20T17:21:39;14.50;99.90
8792;DHT22;4432;50.890;4.744;2022-09-20T17:24:06;14.40;99.90
8792;DHT22;4432;50.890;4.744;2022-09-20T17:26:34;14.40;99.90
8792;DHT22;4432;50.890;4.744;2022-09-20T17:29:03;14.40;99.90
8792;DHT22;4432;50.890;4.744;2022-09-20T17:31:32;14.40;99.90
8792;DHT22;4432;50.890;4.744;2022-09-20T17:34:06;14.30;99.90
8792;DHT22;4432;50.890;4.744;2022-09-20T17:36:39;14.20;99.90
8792;DHT22;4432;50.890;4.744;2022-09-20T17:39:07;14.20;99.90
8792;DHT22;4432;50.890;4.744;2022-09-20T17:41:38;14.30;99.90
8792;DHT22;4432;50.890;4.744;2022-09-20T17:44:04;14.30;99.90
8792;DHT22;4432;50.890;4.744;2022-09-20T17:46:36;14.30;99.90
8792;DHT22;4432;50.890;4.744;2022-09-20T17:49:10;14.20;99.90
8792;DHT22;4432;50.890;4.744;2022-09-20T17:51:42;14.20;99.90
8792;DHT22;4432;50.890;4.744;2022-09-20T17:54:09;14.20;99.90
8792;DHT22;4432;50.890;4.744;2022-09-20T17:56:38;14.10;99.90
8792;DHT22;4432;50.890;4.744;2022-09-20T17:59:05;14.10;99.90
8792;DHT22;4432;50.890;4.744;2022-09-20T18:01:33;14.10;99.90
8792;DHT22;4432;50.890;4.744;2022-09-20T18:04:01;14.10;99.90
8792;DHT22;4432;50.890;4.744;2022-09-20T18:06:29;14.00;99.90
8792;DHT22;4432;50.890;4.744;2022-09-20T18:09:00;14.00;99.90
8792;DHT22;4432;50.890;4.744;2022-09-20T18:11:38;13.90;99.90
8792;DHT22;4432;50.890;4.744;2022-09-20T18:14:06;13.90;99.90
8792;DHT22;4432;50.890;4.744;2022-09-20T18:16:33;13.90;99.90
8792;DHT22;4432;50.890;4.744;2022-09-20T18:19:00;13.90;99.90
8792;DHT22;4432;50.890;4.744;2022-09-20T18:21:28;14.00;99.90
8792;DHT22;4432;50.890;4.744;2022-09-20T18:23:54;14.00;99.90
8792;DHT22;4432;50.890;4.744;2022-09-20T18:26:23;14.00;99.90
8792;DHT22;4432;50.890;4.744;2022-09-20T18:28:56;14.00;99.90
8792;DHT22;4432;50.890;4.744;2022-09-20T18:31:25;14.00;99.90
8792;DHT22;4432;50.890;4.744;2022-09-20T18:33:56;13.90;99.90
8792;DHT22;4432;50.890;4.744;2022-09-20T18:36:22;13.90;99.90
8792;DHT22;4432;50.890;4.744;2022-09-20T18:38:51;13.90;99.90
8792;DHT22;4432;50.890;4.744;2022-09-20T18:41:25;13.90;99.90
8792;DHT22;4432;50.890;4.744;2022-09-20T18:43:53;13.90;99.90
8792;DHT22;4432;50.890;4.744;2022-09-20T18:46:19;14.00;99.90
8792;DHT22;4432;50.890;4.744;2022-09-20T18:48:49;14.00;99.90
8792;DHT22;4432;50.890;4.744;2022-09-20T18:51:15;14.00;99.90
8792;DHT22;4432;50.890;4.744;2022-09-20T18:53:41;14.00;99.90
8792;DHT22;4432;50.890;4.744;2022-09-20T18:56:21;13.90;99.90
8792;DHT22;4432;50.890;4.744;2022-09-20T18:58:52;13.90;99.90
8792;DHT22;4432;50.890;4.744;2022-09-20T19:12:17;13.60;99.90
8792;DHT22;4432;50.890;4.744;2022-09-20T19:17:29;13.50;99.90
8792;DHT22;4432;50.890;4.744;2022-09-20T19:20:04;13.50;99.90
8792;DHT22;4432;50.890;4.744;2022-09-20T19:25:51;13.60;99.90
8792;DHT22;4432;50.890;4.744;2022-09-20T19:28:22;13.50;99.90
8792;DHT22;4432;50.890;4.744;2022-09-20T19:30:48;13.50;99.90
8792;DHT22;4432;50.890;4.744;2022-09-20T19:33:16;13.40;99.90
8792;DHT22;4432;50.890;4.744;2022-09-20T19:35:47;13.30;99.90
8792;DHT22;4432;50.890;4.744;2022-09-20T19:39:21;13.30;99.90
8792;DHT22;4432;50.890;4.744;2022-09-20T19:41:47;13.30;99.90
8792;DHT22;4432;50.890;4.744;2022-09-20T19:44:44;13.30;99.90
8792;DHT22;4432;50.890;4.744;2022-09-20T19:52:37;13.20;99.90
8792;DHT22;4432;50.890;4.744;2022-09-20T19:55:04;13.10;99.90
8792;DHT22;4432;50.890;4.744;2022-09-20T19:57:41;13.00;99.90
8792;DHT22;4432;50.890;4.744;2022-09-20T20:00:11;13.00;99.90
8792;DHT22;4432;50.890;4.744;2022-09-20T20:02:40;12.90;99.90
8792;DHT22;4432;50.890;4.744;2022-09-20T20:05:09;12.80;99.90
8792;DHT22;4432;50.890;4.744;2022-09-20T20:14:33;12.80;99.90
8792;DHT22;4432;50.890;4.744;2022-09-20T20:16:52;12.70;99.90
8792;DHT22;4432;50.890;4.744;2022-09-20T20:19:30;12.60;99.90
8792;DHT22;4432;50.890;4.744;2022-09-20T20:24:54;12.40;99.90
8792;DHT22;4432;50.890;4.744;2022-09-20T20:27:21;12.40;99.90
8792;DHT22;4432;50.890;4.744;2022-09-20T20:29:48;12.20;99.90
8792;DHT22;4432;50.890;4.744;2022-09-20T20:32:15;12.20;99.90
8792;DHT22;4432;50.890;4.744;2022-09-20T20:34:41;12.10;99.90
8792;DHT22;4432;50.890;4.744;2022-09-20T20:37:07;12.00;99.90
8792;DHT22;4432;50.890;4.744;2022-09-20T20:39:33;11.90;99.90
8792;DHT22;4432;50.890;4.744;2022-09-20T20:42:00;11.90;99.90
8792;DHT22;4432;50.890;4.744;2022-09-20T20:44:30;11.80;99.90
8792;DHT22;4432;50.890;4.744;2022-09-20T20:46:56;11.80;99.90
8792;DHT22;4432;50.890;4.744;2022-09-20T20:49:22;11.80;99.90
8792;DHT22;4432;50.890;4.744;2022-09-20T20:51:48;11.80;99.90
8792;DHT22;4432;50.890;4.744;2022-09-20T20:54:14;11.60;99.90
8792;DHT22;4432;50.890;4.744;2022-09-20T20:56:40;11.60;99.90
8792;DHT22;4432;50.890;4.744;2022-09-20T20:59:06;11.50;99.90
8792;DHT22;4432;50.890;4.744;2022-09-20T21:01:33;11.40;99.90
8792;DHT22;4432;50.890;4.744;2022-09-20T21:04:00;11.30;99.90
8792;DHT22;4432;50.890;4.744;2022-09-20T21:06:34;11.30;99.90
8792;DHT22;4432;50.890;4.744;2022-09-20T21:09:01;11.20;99.90
8792;DHT22;4432;50.890;4.744;2022-09-20T21:11:30;11.20;99.90
8792;DHT22;4432;50.890;4.744;2022-09-20T21:13:59;11.10;99.90